Time;durP1;ratioP1;P1;durP2;ratioP2;P2;SDS_P1;SDS_P2;PMS_P1;PMS_P2;Temp;Humidity;BMP_temperature;BMP_pressure;BME280_temperature;BME280_humidity;BME280_pressure;Samples;Min_cycle;Max_cycle;Signal;HPM_P1;HPM_P2
2021/07/06 00:00:18;;;;;;;5.45;1.10;;;18.90;99.90;;;;;;4164364;28;20271;-88
2021/07/06 00:02:20;;;;;;;1.10;0.57;;;18.90;99.90;;;;;;4164373;28;20176;-88
2021/07/06 00:04:22;;;;;;;3.25;0.75;;;18.90;99.90;;;;;;4164348;28;20200;-89
2021/07/06 00:06:22;;;;;;;1.25;0.60;;;18.80;99.90;;;;;;4164248;28;20628;-87
2021/07/06 00:08:23;;;;;;;2.17;0.63;;;18.80;99.90;;;;;;4164304;28;20264;-87
2021/07/06 00:10:25;;;;;;;4.95;0.70;;;18.90;99.90;;;;;;4164432;28;20640;-87
2021/07/06 00:12:26;;;;;;;2.00;0.70;;;18.80;99.90;;;;;;4180699;28;20167;-87
2021/07/06 00:14:27;;;;;;;6.13;0.57;;;18.90;99.90;;;;;;4164093;28;20216;-88
2021/07/06 00:16:27;;;;;;;5.30;0.65;;;18.90;99.90;;;;;;4164090;28;20188;-92
2021/07/06 00:18:28;;;;;;;4.60;0.50;;;18.90;99.90;;;;;;4164043;28;20548;-89
2021/07/06 00:20:29;;;;;;;1.60;0.60;;;18.90;99.90;;;;;;4180622;28;20620;-94
2021/07/06 00:22:30;;;;;;;1.65;0.40;;;18.80;99.90;;;;;;4164177;28;20271;-86
2021/07/06 00:24:30;;;;;;;3.80;0.60;;;18.70;99.90;;;;;;4164105;28;20176;-88
2021/07/06 00:26:31;;;;;;;2.30;0.40;;;18.70;99.90;;;;;;4180811;28;20246;-93
2021/07/06 00:28:32;;;;;;;7.20;0.68;;;18.80;99.90;;;;;;4164446;28;20187;-91
2021/07/06 00:30:33;;;;;;;3.22;0.70;;;18.90;99.90;;;;;;4164352;28;20164;-88
2021/07/06 00:32:34;;;;;;;3.08;0.60;;;18.70;99.90;;;;;;4163917;28;20667;-88
2021/07/06 00:34:35;;;;;;;3.13;0.65;;;18.80;99.90;;;;;;4180568;28;20199;-88
2021/07/06 00:36:36;;;;;;;4.78;0.70;;;18.90;99.90;;;;;;4164082;28;20581;-86
2021/07/06 00:38:37;;;;;;;0.60;0.47;;;18.90;99.90;;;;;;4180554;28;20263;-87
2021/07/06 00:40:38;;;;;;;7.28;0.60;;;18.80;99.90;;;;;;4181813;28;20174;-88
2021/07/06 00:42:41;;;;;;;4.93;0.73;;;18.90;99.90;;;;;;4182201;28;20192;-93
2021/07/06 00:44:41;;;;;;;3.20;0.50;;;18.90;99.90;;;;;;4184720;28;20647;-87
2021/07/06 00:46:42;;;;;;;1.40;0.60;;;19.00;99.90;;;;;;4167140;28;20230;-88
2021/07/06 00:48:43;;;;;;;2.22;0.50;;;19.00;99.90;;;;;;4183392;28;20293;-86
2021/07/06 00:50:43;;;;;;;3.55;0.65;;;19.00;99.90;;;;;;4167244;28;20179;-88
2021/07/06 00:52:45;;;;;;;2.05;0.60;;;19.00;99.90;;;;;;4183244;28;20555;-88
2021/07/06 00:54:45;;;;;;;1.70;0.50;;;19.00;99.90;;;;;;4166984;28;20258;-87
2021/07/06 00:56:47;;;;;;;2.20;0.47;;;18.90;99.90;;;;;;4166939;28;20207;-88
2021/07/06 00:58:48;;;;;;;8.07;0.70;;;19.00;99.90;;;;;;4167054;28;20180;-90
2021/07/06 01:00:49;;;;;;;1.40;0.50;;;19.00;99.90;;;;;;4183635;28;20577;-88
2021/07/06 01:02:51;;;;;;;2.33;0.50;;;19.00;99.90;;;;;;4166984;28;20192;-89
2021/07/06 01:04:52;;;;;;;4.80;0.55;;;19.00;99.90;;;;;;4183589;28;20658;-93
2021/07/06 01:06:53;;;;;;;1.20;0.60;;;19.00;99.90;;;;;;4166802;28;20184;-90
2021/07/06 01:08:54;;;;;;;2.05;0.70;;;19.00;99.90;;;;;;4183392;28;20297;-87
2021/07/06 01:10:55;;;;;;;2.70;0.80;;;19.10;99.90;;;;;;4166822;28;20221;-92
2021/07/06 01:12:56;;;;;;;4.43;0.70;;;19.10;99.90;;;;;;4167008;28;20218;-92
2021/07/06 01:14:58;;;;;;;3.28;0.60;;;19.20;99.90;;;;;;4166798;28;20172;-88
2021/07/06 01:16:58;;;;;;;2.78;0.52;;;19.20;99.90;;;;;;4183154;28;20286;-89
2021/07/06 01:18:59;;;;;;;4.28;0.80;;;19.10;99.90;;;;;;4183346;28;20655;-86
2021/07/06 01:21:00;;;;;;;5.32;0.57;;;19.10;99.90;;;;;;4183344;28;20167;-90
2021/07/06 01:23:02;;;;;;;2.58;0.70;;;19.00;99.90;;;;;;4166549;28;20226;-93
2021/07/06 01:25:06;;;;;;;3.97;0.50;;;18.90;99.90;;;;;;4183180;28;20172;-87
2021/07/06 01:27:07;;;;;;;4.85;0.73;;;18.90;99.90;;;;;;4182966;28;20167;-92
2021/07/06 01:29:07;;;;;;;2.63;0.52;;;18.90;99.90;;;;;;4166670;28;20643;-91
2021/07/06 01:31:08;;;;;;;4.60;0.50;;;18.90;99.90;;;;;;4166593;28;20180;-89
2021/07/06 01:33:09;;;;;;;4.97;0.70;;;18.90;99.90;;;;;;4166048;28;20294;-87
2021/07/06 01:35:11;;;;;;;7.03;1.08;;;18.90;99.90;;;;;;4166556;28;20175;-87
2021/07/06 01:37:19;;;;;;;2.78;0.50;;;19.00;99.90;;;;;;4182891;28;20178;-88
2021/07/06 01:39:21;;;;;;;6.72;0.93;;;19.10;99.90;;;;;;4166257;28;20259;-92
2021/07/06 01:41:21;;;;;;;3.05;0.57;;;19.10;99.90;;;;;;4166396;28;20626;-87
2021/07/06 01:43:22;;;;;;;2.72;0.70;;;19.10;99.90;;;;;;4166321;28;20219;-92
2021/07/06 01:45:28;;;;;;;4.20;0.70;;;19.10;99.90;;;;;;4183014;28;20663;-88
2021/07/06 01:47:28;;;;;;;4.68;0.60;;;19.00;99.90;;;;;;4166668;28;20652;-92
2021/07/06 01:49:29;;;;;;;3.88;0.70;;;19.00;99.90;;;;;;4166215;28;20261;-86
2021/07/06 01:51:30;;;;;;;4.90;0.63;;;19.00;99.90;;;;;;4182874;28;20172;-87
2021/07/06 01:53:30;;;;;;;5.13;0.70;;;19.00;99.90;;;;;;4182217;28;20212;-93
2021/07/06 01:55:52;;;;;;;2.63;0.60;;;18.90;99.90;;;;;;4182490;28;20175;-87
2021/07/06 01:57:56;;;;;;;4.00;0.77;;;18.80;99.90;;;;;;4182593;28;20163;-88
2021/07/06 01:59:56;;;;;;;4.63;0.60;;;18.70;99.90;;;;;;4166339;28;20263;-90
2021/07/06 02:01:57;;;;;;;2.72;0.70;;;18.80;99.90;;;;;;4182525;28;20233;-93
2021/07/06 02:03:58;;;;;;;6.65;0.80;;;18.80;99.90;;;;;;4165720;28;20192;-88
2021/07/06 02:05:59;;;;;;;5.38;0.80;;;18.70;99.90;;;;;;4166099;28;20210;-90
2021/07/06 02:08:07;;;;;;;4.00;0.80;;;18.70;99.90;;;;;;4166387;28;20271;-87
2021/07/06 02:10:09;;;;;;;7.07;0.65;;;18.80;99.90;;;;;;4166020;28;20176;-87
2021/07/06 02:12:10;;;;;;;2.03;0.68;;;18.80;99.90;;;;;;4182519;28;20175;-87
2021/07/06 02:14:10;;;;;;;10.73;0.80;;;18.90;99.90;;;;;;4165685;28;20216;-89
2021/07/06 02:16:11;;;;;;;3.20;0.80;;;18.90;99.90;;;;;;4166411;28;20220;-87
2021/07/06 02:18:20;;;;;;;5.88;0.80;;;18.80;99.90;;;;;;4165623;28;20176;-86
2021/07/06 02:20:22;;;;;;;4.13;0.73;;;18.80;99.90;;;;;;4182308;28;20191;-89
2021/07/06 02:22:23;;;;;;;5.85;0.90;;;18.80;99.90;;;;;;4165594;28;20176;-91
2021/07/06 02:24:23;;;;;;;3.55;0.70;;;18.80;99.90;;;;;;4181859;28;20259;-86
2021/07/06 02:26:24;;;;;;;5.90;0.80;;;18.90;99.90;;;;;;4165588;28;20179;-87
2021/07/06 02:28:25;;;;;;;5.28;0.80;;;18.90;99.90;;;;;;4165632;28;20183;-87
2021/07/06 02:30:26;;;;;;;6.65;0.90;;;18.90;99.90;;;;;;4182337;28;20175;-88
2021/07/06 02:32:27;;;;;;;5.32;0.80;;;19.00;99.90;;;;;;4165992;28;20176;-91
2021/07/06 02:34:27;;;;;;;6.65;0.60;;;19.10;99.90;;;;;;4181907;28;20703;-92
2021/07/06 02:36:28;;;;;;;0.98;0.60;;;19.20;99.90;;;;;;4182006;28;20328;-87
2021/07/06 02:38:29;;;;;;;6.35;0.85;;;19.20;99.90;;;;;;4165421;28;20271;-90
2021/07/06 02:40:30;;;;;;;2.55;0.75;;;19.20;99.90;;;;;;4165751;28;20168;-88
2021/07/06 02:42:31;;;;;;;6.32;0.85;;;19.20;99.90;;;;;;4181626;28;20229;-88
2021/07/06 02:44:32;;;;;;;3.97;0.70;;;19.20;99.90;;;;;;4165547;28;20609;-86
2021/07/06 02:46:32;;;;;;;2.65;0.70;;;19.10;99.90;;;;;;4181744;28;20179;-88
2021/07/06 02:48:34;;;;;;;2.75;0.88;;;19.20;99.90;;;;;;4165091;28;20740;-86
2021/07/06 02:50:36;;;;;;;9.00;1.15;;;19.30;99.90;;;;;;4181708;28;20175;-89
2021/07/06 02:52:37;;;;;;;4.68;1.05;;;19.20;99.90;;;;;;4165314;28;20172;-88
2021/07/06 02:54:38;;;;;;;7.15;0.98;;;19.10;99.90;;;;;;4165234;28;20216;-92
2021/07/06 02:56:39;;;;;;;6.53;1.00;;;19.10;99.90;;;;;;4165429;28;20198;-92
2021/07/06 02:58:39;;;;;;;8.68;1.00;;;19.20;99.90;;;;;;4165338;28;20180;-87
2021/07/06 03:00:40;;;;;;;4.40;0.90;;;19.10;99.90;;;;;;4165459;28;20202;-87
2021/07/06 03:02:47;;;;;;;4.68;1.27;;;19.10;99.90;;;;;;4181639;28;20175;-92
2021/07/06 03:04:47;;;;;;;4.78;1.13;;;19.20;99.90;;;;;;4164478;28;20172;-92
2021/07/06 03:06:48;;;;;;;4.97;1.02;;;19.20;99.90;;;;;;4181607;28;20178;-87
2021/07/06 03:08:52;;;;;;;2.05;0.90;;;19.30;99.90;;;;;;4181584;28;20172;-91
2021/07/06 03:10:52;;;;;;;7.20;1.10;;;19.20;99.90;;;;;;4165124;28;20180;-93
2021/07/06 03:12:54;;;;;;;2.95;0.73;;;19.30;99.90;;;;;;4181256;28;20188;-90
2021/07/06 03:14:55;;;;;;;5.28;0.98;;;19.30;99.90;;;;;;4164859;28;20216;-91
2021/07/06 03:16:56;;;;;;;6.95;1.00;;;19.30;99.90;;;;;;4164897;28;20187;-92
2021/07/06 03:18:57;;;;;;;2.25;0.95;;;19.30;99.90;;;;;;4164923;28;20576;-88
2021/07/06 03:20:58;;;;;;;3.88;0.80;;;19.20;99.90;;;;;;4181452;28;20168;-87
2021/07/06 03:22:59;;;;;;;2.80;0.90;;;19.30;99.90;;;;;;4181315;28;20486;-87
2021/07/06 03:25:00;;;;;;;6.70;1.02;;;19.30;99.90;;;;;;4181269;28;20237;-87
2021/07/06 03:27:00;;;;;;;6.25;1.00;;;19.30;99.90;;;;;;4181284;28;20167;-89
2021/07/06 03:29:01;;;;;;;8.68;1.60;;;19.10;99.90;;;;;;4181176;28;20189;-87
2021/07/06 03:31:02;;;;;;;12.30;1.38;;;19.10;99.90;;;;;;4164953;28;20177;-89
2021/07/06 03:33:05;;;;;;;3.85;1.38;;;19.00;99.90;;;;;;4164639;28;20568;-88
2021/07/06 03:35:07;;;;;;;8.43;1.50;;;19.00;99.90;;;;;;4181195;28;20179;-88
2021/07/06 03:37:08;;;;;;;9.57;1.50;;;19.00;99.90;;;;;;4164566;28;20169;-89
2021/07/06 03:39:09;;;;;;;5.82;1.27;;;19.00;99.90;;;;;;4164650;28;20238;-89
2021/07/06 03:41:09;;;;;;;4.65;1.20;;;19.00;99.90;;;;;;4181243;28;20163;-93
2021/07/06 03:43:10;;;;;;;2.83;1.70;;;19.00;99.90;;;;;;4164610;28;20318;-88
2021/07/06 03:45:12;;;;;;;10.85;1.88;;;19.00;99.90;;;;;;4164494;28;20164;-91
2021/07/06 03:47:13;;;;;;;8.23;1.90;;;18.90;99.90;;;;;;4181496;28;20743;-88
2021/07/06 03:49:14;;;;;;;4.75;2.17;;;18.90;99.90;;;;;;4164603;28;20164;-88
2021/07/06 03:51:14;;;;;;;6.72;2.00;;;18.90;99.90;;;;;;4197622;28;20178;-87
2021/07/06 03:53:15;;;;;;;9.70;2.40;;;18.90;99.90;;;;;;4164659;28;20180;-91
2021/07/06 03:55:16;;;;;;;6.63;2.35;;;18.80;99.90;;;;;;4164631;28;20179;-87
2021/07/06 03:57:28;;;;;;;16.73;2.63;;;18.90;99.90;;;;;;4164423;28;20199;-86
2021/07/06 03:59:29;;;;;;;3.60;1.90;;;18.90;99.90;;;;;;4164353;28;20175;-87
2021/07/06 04:01:30;;;;;;;7.30;2.38;;;19.00;99.90;;;;;;4164083;28;20168;-87
2021/07/06 04:03:30;;;;;;;4.80;2.08;;;19.00;99.90;;;;;;4163877;28;20195;-87
2021/07/06 04:05:31;;;;;;;6.95;1.80;;;18.90;99.90;;;;;;4164355;28;20172;-87
2021/07/06 04:07:32;;;;;;;3.92;2.00;;;19.00;99.90;;;;;;4164327;28;20210;-86
2021/07/06 04:09:32;;;;;;;3.75;1.70;;;19.10;99.90;;;;;;4180791;28;20167;-88
2021/07/06 04:11:33;;;;;;;8.77;1.48;;;19.10;99.90;;;;;;4164342;28;20595;-86
2021/07/06 04:13:34;;;;;;;3.17;1.60;;;19.20;99.90;;;;;;4164193;28;20228;-92
2021/07/06 04:15:35;;;;;;;10.15;1.33;;;19.20;99.90;;;;;;4164442;28;20180;-86
2021/07/06 04:17:35;;;;;;;6.78;1.10;;;19.20;99.90;;;;;;4184174;28;20627;-87
2021/07/06 04:19:36;;;;;;;5.13;1.15;;;19.30;99.90;;;;;;4184206;28;20175;-86
2021/07/06 04:21:37;;;;;;;3.80;1.10;;;19.30;99.90;;;;;;4184171;28;20217;-87
2021/07/06 04:23:38;;;;;;;6.97;1.20;;;19.30;99.90;;;;;;4184198;28;20201;-87
2021/07/06 04:25:39;;;;;;;2.35;1.05;;;19.30;99.90;;;;;;4167542;28;20239;-86
2021/07/06 04:27:40;;;;;;;5.15;1.25;;;19.30;99.90;;;;;;4183773;28;20180;-87
2021/07/06 04:29:41;;;;;;;2.90;1.08;;;19.30;99.90;;;;;;4167385;28;20207;-92
2021/07/06 04:31:41;;;;;;;8.30;1.50;;;19.30;99.90;;;;;;4184089;28;20568;-89
2021/07/06 04:33:42;;;;;;;3.97;1.00;;;19.30;99.90;;;;;;4167444;28;20200;-87
2021/07/06 04:35:43;;;;;;;4.75;1.08;;;19.40;99.90;;;;;;4183891;28;20178;-89
2021/07/06 04:37:43;;;;;;;10.57;1.52;;;19.50;99.90;;;;;;4167518;28;20175;-83
2021/07/06 04:39:44;;;;;;;5.88;1.00;;;19.40;99.90;;;;;;4200502;28;20620;-88
2021/07/06 04:41:46;;;;;;;4.10;1.00;;;19.30;99.90;;;;;;4167633;28;20164;-91
2021/07/06 04:43:47;;;;;;;13.90;1.10;;;19.30;99.90;;;;;;4167468;28;20273;-91
2021/07/06 04:45:48;;;;;;;2.75;0.90;;;19.30;99.90;;;;;;4167502;28;20164;-94
2021/07/06 04:47:49;;;;;;;4.72;0.80;;;19.30;99.90;;;;;;4167252;28;20529;-88
2021/07/06 04:49:50;;;;;;;4.70;1.00;;;19.30;99.90;;;;;;4167396;28;20617;-92
2021/07/06 04:51:50;;;;;;;3.47;0.98;;;19.40;99.90;;;;;;4167225;28;20179;-91
2021/07/06 04:53:51;;;;;;;4.90;1.00;;;19.40;99.90;;;;;;4167298;28;20212;-94
2021/07/06 04:55:52;;;;;;;4.57;0.85;;;19.30;99.90;;;;;;4167238;28;20169;-91
2021/07/06 04:57:52;;;;;;;6.18;1.02;;;19.30;99.90;;;;;;4167272;28;20177;-92
2021/07/06 04:59:53;;;;;;;5.55;1.13;;;19.30;99.90;;;;;;4167251;28;20168;-87
2021/07/06 05:01:54;;;;;;;3.30;1.00;;;19.30;99.90;;;;;;4183604;28;20182;-89
2021/07/06 05:03:57;;;;;;;3.53;1.08;;;19.40;99.90;;;;;;4166971;28;20249;-92
2021/07/06 05:05:58;;;;;;;7.72;1.08;;;19.40;99.90;;;;;;4166931;28;20621;-94
2021/07/06 05:07:59;;;;;;;3.47;0.90;;;19.40;99.90;;;;;;4183523;28;20186;-90
2021/07/06 05:10:00;;;;;;;9.90;0.90;;;19.60;99.90;;;;;;4167063;28;20163;-92
2021/07/06 05:12:01;;;;;;;4.40;0.88;;;19.50;99.90;;;;;;4166957;28;20187;-92
2021/07/06 05:14:02;;;;;;;6.05;0.82;;;19.50;99.90;;;;;;4166447;28;20204;-92
2021/07/06 05:16:03;;;;;;;5.15;0.98;;;19.50;99.90;;;;;;4166680;28;20258;-91
2021/07/06 05:18:05;;;;;;;5.82;0.52;;;19.50;99.90;;;;;;4166913;28;20616;-89
2021/07/06 05:20:07;;;;;;;3.67;0.90;;;19.40;99.90;;;;;;4167006;28;20180;-89
2021/07/06 05:22:07;;;;;;;5.05;1.05;;;19.40;99.90;;;;;;4166733;28;20226;-88
2021/07/06 05:24:09;;;;;;;14.13;1.10;;;19.50;99.90;;;;;;4166327;28;20287;-91
2021/07/06 05:26:12;;;;;;;2.00;0.70;;;19.50;99.90;;;;;;4166455;28;20172;-91
2021/07/06 05:28:13;;;;;;;4.80;0.80;;;19.50;99.90;;;;;;4165819;28;20250;-87
2021/07/06 05:30:14;;;;;;;4.53;1.00;;;19.40;99.90;;;;;;4182980;28;20171;-87
2021/07/06 05:32:19;;;;;;;9.85;0.90;;;19.40;99.90;;;;;;4182813;28;20194;-89
2021/07/06 05:34:20;;;;;;;10.07;0.80;;;19.30;99.90;;;;;;4166431;28;20203;-89
2021/07/06 05:36:21;;;;;;;7.32;0.95;;;19.30;99.90;;;;;;4183100;28;20175;-90
2021/07/06 05:38:22;;;;;;;2.75;0.70;;;19.40;99.90;;;;;;4166715;28;20568;-91
2021/07/06 05:40:23;;;;;;;7.55;0.95;;;19.30;99.90;;;;;;4166754;28;20180;-89
2021/07/06 05:42:24;;;;;;;5.53;0.80;;;19.30;99.90;;;;;;4166284;28;20259;-89
2021/07/06 05:44:25;;;;;;;6.85;0.90;;;19.30;99.90;;;;;;4166480;28;20180;-92
2021/07/06 05:46:29;;;;;;;11.55;0.90;;;19.40;99.90;;;;;;4182810;28;20629;-88
2021/07/06 05:48:30;;;;;;;3.38;0.90;;;19.40;99.90;;;;;;4182711;28;20218;-88
2021/07/06 05:50:31;;;;;;;9.57;0.55;;;19.30;99.90;;;;;;4166375;28;20176;-91
2021/07/06 05:52:33;;;;;;;9.32;0.90;;;19.40;99.90;;;;;;4166079;28;20255;-87
2021/07/06 05:54:34;;;;;;;4.40;0.60;;;19.40;99.90;;;;;;4165909;28;20214;-90
2021/07/06 05:56:35;;;;;;;5.82;0.82;;;19.50;99.90;;;;;;4166151;28;20565;-89
2021/07/06 05:58:35;;;;;;;5.20;0.70;;;19.50;99.90;;;;;;4166009;28;20165;-92
2021/07/06 06:00:38;;;;;;;5.93;0.80;;;19.50;99.90;;;;;;4166106;28;20731;-92
2021/07/06 06:02:39;;;;;;;5.65;0.70;;;19.60;99.90;;;;;;4182322;28;20168;-92
2021/07/06 06:04:40;;;;;;;4.43;0.70;;;19.60;99.90;;;;;;4182401;28;20199;-91
2021/07/06 06:06:40;;;;;;;8.13;0.80;;;19.70;99.90;;;;;;4165771;28;20235;-89
2021/07/06 06:08:42;;;;;;;6.25;0.57;;;19.70;99.90;;;;;;4182416;28;20183;-89
2021/07/06 06:10:43;;;;;;;3.13;0.60;;;19.90;99.90;;;;;;4182526;28;20172;-90
2021/07/06 06:12:44;;;;;;;6.07;0.98;;;19.90;99.90;;;;;;4165813;28;20695;-90
2021/07/06 06:14:45;;;;;;;6.45;0.90;;;19.70;99.90;;;;;;4165770;28;20301;-87
2021/07/06 06:16:45;;;;;;;13.63;1.10;;;19.60;99.90;;;;;;4182205;28;20195;-91
2021/07/06 06:18:53;;;;;;;12.35;0.90;;;19.40;99.90;;;;;;4182391;28;20179;-89
2021/07/06 06:20:54;;;;;;;6.85;0.98;;;19.30;99.90;;;;;;4165740;28;20270;-89
2021/07/06 06:22:55;;;;;;;10.63;1.08;;;19.40;99.90;;;;;;4182328;28;20218;-89
2021/07/06 06:24:55;;;;;;;7.50;0.95;;;19.20;99.90;;;;;;4165704;28;20234;-91
2021/07/06 06:26:56;;;;;;;5.35;0.90;;;19.20;99.90;;;;;;4165757;28;20215;-89
2021/07/06 06:28:57;;;;;;;4.03;0.80;;;19.10;99.90;;;;;;4182130;28;20454;-88
2021/07/06 06:30:57;;;;;;;7.38;1.10;;;19.10;99.90;;;;;;4165605;28;20164;-91
2021/07/06 06:32:59;;;;;;;6.43;0.93;;;19.10;99.90;;;;;;4165655;28;20234;-90
2021/07/06 06:34:59;;;;;;;10.40;1.55;;;19.00;99.90;;;;;;4165707;28;20287;-91
2021/07/06 06:37:00;;;;;;;4.78;1.00;;;19.20;99.90;;;;;;4182176;28;20171;-91
2021/07/06 06:39:01;;;;;;;5.35;0.73;;;19.20;99.90;;;;;;4165495;28;20179;-90
2021/07/06 06:41:02;;;;;;;9.00;0.98;;;19.20;99.90;;;;;;4165727;28;20180;-90
2021/07/06 06:43:03;;;;;;;7.50;0.93;;;19.30;99.90;;;;;;4165232;28;20199;-89
2021/07/06 06:45:06;;;;;;;5.07;1.10;;;19.00;99.90;;;;;;4182800;28;20258;-90
2021/07/06 06:47:07;;;;;;;6.57;0.88;;;19.00;99.90;;;;;;4165334;28;20683;-91
2021/07/06 06:49:08;;;;;;;8.75;0.80;;;19.00;99.90;;;;;;4181596;28;20175;-91
2021/07/06 06:51:11;;;;;;;9.82;1.08;;;19.00;99.90;;;;;;4165391;28;20196;-93
2021/07/06 06:53:12;;;;;;;10.85;1.40;;;19.00;99.90;;;;;;4165250;28;20211;-94
2021/07/06 06:55:13;;;;;;;8.85;0.90;;;19.10;99.90;;;;;;4165137;28;20520;-90
2021/07/06 06:57:13;;;;;;;10.23;1.30;;;19.20;99.90;;;;;;4165107;28;20180;-91
2021/07/06 06:59:14;;;;;;;9.02;1.08;;;19.20;99.90;;;;;;4181692;28;20176;-93
2021/07/06 07:01:15;;;;;;;6.72;0.82;;;19.30;99.90;;;;;;4165158;28;20186;-91
2021/07/06 07:03:16;;;;;;;9.13;1.27;;;19.30;99.90;;;;;;4165139;28;20242;-90
2021/07/06 07:05:17;;;;;;;8.05;0.73;;;19.40;99.90;;;;;;4181606;28;20211;-90
2021/07/06 07:07:20;;;;;;;7.78;1.45;;;19.10;99.90;;;;;;4181608;28;20174;-91
2021/07/06 07:09:20;;;;;;;11.70;1.00;;;19.00;99.90;;;;;;4165154;28;20176;-89
2021/07/06 07:11:21;;;;;;;9.18;0.77;;;19.10;99.90;;;;;;4181433;28;20198;-88
2021/07/06 07:13:22;;;;;;;7.72;1.33;;;19.00;99.90;;;;;;4164738;28;20199;-90
2021/07/06 07:15:23;;;;;;;11.73;1.20;;;18.90;99.90;;;;;;4164787;28;20322;-90
2021/07/06 07:17:24;;;;;;;11.10;1.10;;;18.90;99.90;;;;;;4164608;28;20695;-91
2021/07/06 07:19:24;;;;;;;4.63;0.88;;;19.30;99.90;;;;;;4181714;28;20167;-86
2021/07/06 07:21:25;;;;;;;11.52;1.52;;;20.40;99.90;;;;;;4181675;28;20167;-88
2021/07/06 07:23:26;;;;;;;4.68;0.82;;;21.50;99.90;;;;;;4164912;28;20219;-92
2021/07/06 07:25:27;;;;;;;8.55;1.00;;;22.40;99.90;;;;;;4181443;28;20258;-90
2021/07/06 07:27:28;;;;;;;8.85;1.50;;;23.40;99.90;;;;;;4164817;28;20180;-88
2021/07/06 07:29:28;;;;;;;7.13;0.95;;;23.90;99.90;;;;;;4164410;28;20180;-85
2021/07/06 07:31:29;;;;;;;5.72;0.90;;;24.80;99.90;;;;;;4180885;28;20202;-86
2021/07/06 07:33:30;;;;;;;9.55;1.30;;;25.30;99.90;;;;;;4164597;28;20258;-91
2021/07/06 07:35:31;;;;;;;9.48;1.10;;;25.80;99.90;;;;;;4181334;28;20183;-89
2021/07/06 07:37:32;;;;;;;8.00;0.98;;;26.10;99.90;;;;;;4164633;28;20176;-92
2021/07/06 07:39:33;;;;;;;5.45;1.00;;;25.50;99.90;;;;;;4181217;28;20178;-91
2021/07/06 07:41:34;;;;;;;9.75;1.33;;;25.50;99.90;;;;;;4164571;28;20164;-91
2021/07/06 07:43:35;;;;;;;13.48;1.00;;;25.20;99.90;;;;;;4180849;28;20619;-90
2021/07/06 07:45:36;;;;;;;7.22;0.98;;;25.20;99.90;;;;;;4164507;28;20286;-91
2021/07/06 07:47:37;;;;;;;11.48;1.15;;;23.00;99.90;;;;;;4164680;28;20287;-90
2021/07/06 07:49:38;;;;;;;5.63;1.05;;;22.30;99.90;;;;;;4164766;28;20254;-92
2021/07/06 07:51:39;;;;;;;7.05;1.35;;;21.90;99.90;;;;;;4164248;28;20624;-92
2021/07/06 07:53:39;;;;;;;13.82;1.70;;;21.90;99.90;;;;;;4164326;28;20251;-90
2021/07/06 07:55:40;;;;;;;8.35;1.00;;;23.20;99.90;;;;;;4164363;28;20267;-91
2021/07/06 07:57:41;;;;;;;6.57;1.02;;;24.10;99.90;;;;;;4164396;28;20194;-91
2021/07/06 07:59:41;;;;;;;12.75;1.25;;;24.80;99.90;;;;;;4180923;28;20170;-90
2021/07/06 08:01:42;;;;;;;3.90;0.63;;;25.10;99.90;;;;;;4164566;28;20259;-92
2021/07/06 08:03:43;;;;;;;7.75;0.95;;;24.80;99.90;;;;;;4164339;28;20261;-90
2021/07/06 08:05:43;;;;;;;4.55;0.90;;;23.80;99.90;;;;;;4164775;28;20173;-91
2021/07/06 08:07:45;;;;;;;6.55;1.00;;;23.00;99.90;;;;;;4164599;28;20200;-90
2021/07/06 08:09:45;;;;;;;8.32;1.10;;;22.50;99.90;;;;;;4164589;28;20206;-91
2021/07/06 08:11:46;;;;;;;12.15;1.10;;;22.10;99.90;;;;;;4181157;28;20624;-92
2021/07/06 08:13:47;;;;;;;8.60;1.15;;;22.10;99.90;;;;;;4180885;28;20214;-91
2021/07/06 08:15:50;;;;;;;8.88;1.15;;;22.60;99.90;;;;;;4164824;28;20199;-90
2021/07/06 08:17:50;;;;;;;10.20;1.10;;;22.90;99.90;;;;;;4164464;28;20193;-89
2021/07/06 08:19:52;;;;;;;9.88;1.00;;;23.10;99.90;;;;;;4180670;28;20167;-89
2021/07/06 08:21:53;;;;;;;9.05;1.02;;;22.40;99.90;;;;;;4164604;28;20229;-92
2021/07/06 08:23:58;;;;;;;10.07;1.20;;;21.70;99.90;;;;;;4180555;28;20683;-87
2021/07/06 08:25:59;;;;;;;14.70;1.70;;;21.00;99.90;;;;;;4164493;28;20172;-93
2021/07/06 08:27:59;;;;;;;14.32;1.35;;;20.60;99.90;;;;;;4180701;28;20279;-84
2021/07/06 08:30:00;;;;;;;10.00;1.40;;;20.60;99.90;;;;;;4164224;28;20635;-86
2021/07/06 08:32:01;;;;;;;7.32;1.48;;;20.90;99.90;;;;;;4163931;28;20179;-85
2021/07/06 08:34:02;;;;;;;11.80;1.90;;;20.80;99.90;;;;;;4163830;28;20211;-86
2021/07/06 08:36:03;;;;;;;13.68;1.35;;;20.50;99.90;;;;;;4180388;28;20180;-91
2021/07/06 08:38:04;;;;;;;13.00;1.17;;;20.30;99.90;;;;;;4163976;28;20648;-87
2021/07/06 08:40:06;;;;;;;15.38;1.48;;;20.50;99.90;;;;;;4163868;28;20199;-85
2021/07/06 08:42:08;;;;;;;14.02;1.40;;;20.60;99.90;;;;;;4180373;28;20294;-86
2021/07/06 08:44:10;;;;;;;7.88;1.65;;;20.40;99.90;;;;;;4163849;28;20192;-86
2021/07/06 08:46:18;;;;;;;15.48;1.55;;;20.20;99.90;;;;;;4163916;28;20235;-86
2021/07/06 08:48:21;;;;;;;8.15;1.35;;;20.60;99.90;;;;;;4163951;28;20644;-85
2021/07/06 08:50:23;;;;;;;14.18;1.65;;;20.60;99.90;;;;;;4164037;28;20176;-86
2021/07/06 08:52:24;;;;;;;12.27;2.10;;;20.60;99.90;;;;;;4180339;28;20250;-90
2021/07/06 08:54:25;;;;;;;11.30;1.50;;;20.20;99.90;;;;;;4163873;28;20549;-86
2021/07/06 08:56:26;;;;;;;19.10;2.00;;;20.10;99.90;;;;;;4163879;28;20171;-87
2021/07/06 08:58:27;;;;;;;6.68;0.90;;;20.00;99.90;;;;;;4164119;28;20184;-86
2021/07/06 09:00:30;;;;;;;9.88;1.38;;;20.00;99.90;;;;;;4164132;28;20172;-85
2021/07/06 09:02:30;;;;;;;15.13;1.40;;;19.80;99.90;;;;;;4164072;28;20231;-86
2021/07/06 09:04:44;;;;;;;10.40;1.10;;;19.80;99.90;;;;;;4167082;28;20173;-87
2021/07/06 09:06:56;;;;;;;9.15;1.33;;;19.70;99.90;;;;;;4167313;28;20667;-92
2021/07/06 09:09:20;;;;;;;10.05;1.23;;;20.50;99.90;;;;;;4166572;28;20278;-87
2021/07/06 09:11:21;;;;;;;12.65;1.83;;;20.90;99.90;;;;;;4166992;28;20620;-87
2021/07/06 09:13:33;;;;;;;16.77;1.80;;;21.30;99.90;;;;;;4166660;28;20192;-85
2021/07/06 09:15:33;;;;;;;9.90;1.23;;;21.50;99.90;;;;;;4183318;28;20175;-87
2021/07/06 09:17:34;;;;;;;9.00;1.33;;;21.60;99.90;;;;;;4182936;28;20183;-90
2021/07/06 09:19:36;;;;;;;11.10;1.30;;;21.60;99.90;;;;;;4166745;28;20211;-87
2021/07/06 09:21:37;;;;;;;9.57;1.20;;;21.20;99.90;;;;;;4199617;28;20166;-91
2021/07/06 09:23:41;;;;;;;9.63;1.15;;;21.00;99.90;;;;;;4166462;28;20189;-84
2021/07/06 09:25:42;;;;;;;14.52;1.20;;;21.00;99.90;;;;;;4166512;28;20258;-87
2021/07/06 09:27:43;;;;;;;10.32;1.23;;;21.10;99.90;;;;;;4166549;28;20659;-87
2021/07/06 09:30:12;;;;;;;8.43;1.00;;;21.80;99.90;;;;;;4166402;28;20172;-88
2021/07/06 09:32:22;;;;;;;10.77;1.10;;;22.30;99.90;;;;;;4166653;28;20264;-87
2021/07/06 09:34:23;;;;;;;9.23;0.90;;;22.70;99.90;;;;;;4166518;28;20204;-87
2021/07/06 09:36:30;;;;;;;12.70;1.20;;;22.80;99.90;;;;;;4166480;28;20576;-88
2021/07/06 09:38:31;;;;;;;11.80;1.25;;;22.50;99.90;;;;;;4166275;28;20165;-92
2021/07/06 09:40:35;;;;;;;12.45;1.50;;;22.50;99.90;;;;;;4182868;28;20616;-87
2021/07/06 09:42:35;;;;;;;9.43;1.63;;;22.50;99.90;;;;;;4182592;28;20164;-86
2021/07/06 09:44:39;;;;;;;17.02;1.90;;;22.50;99.90;;;;;;4166132;28;20169;-85
2021/07/06 09:46:50;;;;;;;7.68;1.40;;;22.00;99.90;;;;;;4182818;28;20183;-86
2021/07/06 09:48:58;;;;;;;11.30;2.10;;;21.20;99.90;;;;;;4166349;28;20179;-87
2021/07/06 09:51:10;;;;;;;9.30;1.33;;;20.80;99.90;;;;;;4166335;28;20167;-87
2021/07/06 09:53:32;;;;;;;16.45;1.25;;;20.70;99.90;;;;;;4166204;28;20255;-86
2021/07/06 09:55:37;;;;;;;10.18;1.10;;;20.70;99.90;;;;;;4182662;28;20191;-86
2021/07/06 09:57:39;;;;;;;12.45;1.38;;;20.90;99.90;;;;;;4182845;28;20175;-86
2021/07/06 09:59:53;;;;;;;14.07;1.48;;;20.80;99.90;;;;;;4166279;28;20188;-86
2021/07/06 10:01:55;;;;;;;13.45;1.10;;;20.70;99.90;;;;;;4182519;28;20710;-87
2021/07/06 10:03:57;;;;;;;14.40;1.27;;;20.40;99.90;;;;;;4165746;28;20192;-86
2021/07/06 10:05:58;;;;;;;12.57;1.33;;;20.50;99.90;;;;;;4182220;28;20208;-87
2021/07/06 10:07:59;;;;;;;17.00;1.55;;;20.70;99.90;;;;;;4165679;28;20548;-91
2021/07/06 10:10:01;;;;;;;15.35;1.25;;;20.60;99.90;;;;;;4182487;28;20176;-87
2021/07/06 10:12:01;;;;;;;15.10;1.35;;;20.50;99.90;;;;;;4166034;28;20252;-85
2021/07/06 10:14:02;;;;;;;11.10;1.50;;;20.20;99.90;;;;;;4181866;28;20219;-88
2021/07/06 10:16:04;;;;;;;11.05;1.80;;;20.60;99.90;;;;;;4165947;28;20568;-91
2021/07/06 10:18:05;;;;;;;12.27;1.73;;;20.90;99.90;;;;;;4165867;28;20234;-88
2021/07/06 10:20:09;;;;;;;11.43;1.15;;;20.90;99.90;;;;;;4182126;28;20229;-88
2021/07/06 10:22:11;;;;;;;5.55;1.63;;;21.10;99.90;;;;;;4165776;28;20172;-86
2021/07/06 10:24:14;;;;;;;12.15;1.00;;;21.00;99.90;;;;;;4182091;28;20282;-88
2021/07/06 10:26:23;;;;;;;12.30;1.15;;;21.20;99.90;;;;;;4165549;28;20234;-86
2021/07/06 10:28:27;;;;;;;10.95;1.27;;;21.50;99.90;;;;;;4165267;28;20164;-87
2021/07/06 10:30:39;;;;;;;11.50;1.00;;;21.60;99.90;;;;;;4165414;28;20203;-86
2021/07/06 10:32:42;;;;;;;11.68;1.50;;;21.40;99.90;;;;;;4181867;28;20318;-88